Time;durP1;ratioP1;P1;durP2;ratioP2;P2;SDS_P1;SDS_P2;PMS_P1;PMS_P2;Temp;Humidity;BMP_temperature;BMP_pressure;BME280_temperature;BME280_humidity;BME280_pressure;Samples;Min_cycle;Max_cycle;Signal;HPM_P1;HPM_P2
2024/02/04 00:02:18;;;;;;;4.30;2.20;;;;;;;21.16;43.28;102221.09;5034591;27;127077;-78
2024/02/04 00:04:44;;;;;;;3.28;1.55;;;;;;;21.17;43.54;102227.28;5035282;27;97570;-78
2024/02/04 00:07:09;;;;;;;3.17;1.60;;;;;;;21.17;43.61;102229.94;5042051;27;98226;-77
2024/02/04 00:09:35;;;;;;;2.75;1.60;;;;;;;21.16;43.43;102238.75;5035398;27;97723;-78
2024/02/04 00:12:03;;;;;;;2.97;1.77;;;;;;;21.17;43.37;102227.28;5037776;27;126903;-78
2024/02/04 00:14:28;;;;;;;3.50;2.03;;;;;;;21.17;43.45;102221.97;5034637;27;96741;-78
2024/02/04 00:16:54;;;;;;;4.63;1.83;;;;;;;21.16;43.68;102223.75;5032924;27;110032;-78
2024/02/04 00:19:19;;;;;;;2.50;1.27;;;;;;;21.18;43.40;102218.44;5034398;27;110954;-78
2024/02/04 00:21:44;;;;;;;3.75;1.88;;;;;;;21.17;43.23;102217.53;5025909;27;110801;-77
2024/02/04 00:24:10;;;;;;;2.67;1.55;;;;;;;21.16;43.64;102223.75;5032135;27;96752;-78
2024/02/04 00:26:35;;;;;;;3.55;1.60;;;;;;;21.18;43.62;102237.00;5037179;27;111894;-80
2024/02/04 00:29:00;;;;;;;2.67;1.55;;;;;;;21.16;43.40;102229.06;5039424;27;102891;-78
2024/02/04 00:31:26;;;;;;;2.75;1.90;;;;;;;21.16;43.68;102228.16;5026327;27;129789;-77
2024/02/04 00:33:51;;;;;;;2.80;1.45;;;;;;;21.16;43.63;102226.41;5021186;27;100800;-77
2024/02/04 00:36:17;;;;;;;3.45;1.65;;;;;;;21.17;43.40;102229.94;5032511;27;97007;-78
2024/02/04 00:38:43;;;;;;;2.65;1.90;;;;;;;21.17;43.25;102229.94;5012532;28;97390;-78
2024/02/04 00:41:08;;;;;;;2.88;2.28;;;;;;;21.17;43.18;102237.88;5013581;27;99122;-78
2024/02/04 00:43:34;;;;;;;2.75;2.08;;;;;;;21.17;43.48;102232.56;5032194;27;98451;-78
2024/02/04 00:46:01;;;;;;;5.07;1.80;;;;;;;21.18;43.41;102232.56;5031659;27;113101;-78
2024/02/04 00:48:26;;;;;;;2.83;1.25;;;;;;;21.17;43.56;102230.78;5032480;27;96895;-77
2024/02/04 00:50:51;;;;;;;4.18;2.08;;;;;;;21.17;43.51;102229.94;5029369;27;97833;-78
2024/02/04 00:53:17;;;;;;;3.03;1.42;;;;;;;21.18;43.33;102231.69;5009010;28;126597;-77
2024/02/04 00:55:42;;;;;;;2.72;1.30;;;;;;;21.17;43.40;102244.06;5031130;27;97308;-78
2024/02/04 00:58:08;;;;;;;3.92;2.08;;;;;;;21.18;43.33;102231.69;5037223;27;96826;-78
2024/02/04 01:00:33;;;;;;;3.22;1.67;;;;;;;21.17;43.29;102236.09;5031547;27;97370;-78
2024/02/04 01:02:59;;;;;;;3.05;1.77;;;;;;;21.18;43.25;102237.00;5028233;27;97223;-78
2024/02/04 01:05:24;;;;;;;4.25;1.90;;;;;;;21.18;43.47;102243.19;5027341;27;96877;-77
2024/02/04 01:07:49;;;;;;;2.50;1.55;;;;;;;21.17;43.29;102243.19;5037992;27;111657;-77
2024/02/04 01:10:15;;;;;;;3.08;2.28;;;;;;;21.17;43.40;102244.06;5030919;27;124134;-78
2024/02/04 01:12:40;;;;;;;2.78;2.00;;;;;;;21.17;43.60;102236.09;5032817;27;125333;-77
2024/02/04 01:15:06;;;;;;;3.45;1.35;;;;;;;21.18;43.48;102242.31;5007371;28;96745;-77
2024/02/04 01:17:33;;;;;;;2.42;1.50;;;;;;;21.18;43.69;102239.66;5025093;27;97881;-77
2024/02/04 01:19:58;;;;;;;3.22;1.70;;;;;;;21.17;43.53;102230.78;5023595;27;98813;-78
2024/02/04 01:22:26;;;;;;;2.85;1.30;;;;;;;21.18;43.27;102237.00;5024146;27;111426;-78
2024/02/04 01:24:52;;;;;;;2.78;1.85;;;;;;;21.17;43.35;102225.47;5029571;27;96842;-78
2024/02/04 01:27:17;;;;;;;2.55;1.80;;;;;;;21.18;43.54;102231.69;5032145;27;96758;-77
2024/02/04 01:29:42;;;;;;;2.80;1.58;;;;;;;21.17;43.31;102236.09;5012186;27;103403;-77
2024/02/04 01:32:08;;;;;;;2.83;2.00;;;;;;;21.18;43.30;102235.22;5030850;27;104810;-77
2024/02/04 01:34:33;;;;;;;2.90;1.58;;;;;;;21.18;43.34;102229.91;5031050;27;110577;-78
2024/02/04 01:36:58;;;;;;;2.75;1.50;;;;;;;21.18;43.60;102229.03;5036964;27;112693;-77
2024/02/04 01:39:24;;;;;;;3.20;1.98;;;;;;;21.18;43.16;102226.38;5034710;27;128957;-77
2024/02/04 01:41:50;;;;;;;2.75;1.42;;;;;;;21.18;43.26;102221.94;5032717;27;99423;-78
2024/02/04 01:44:16;;;;;;;3.75;2.17;;;;;;;21.18;43.61;102227.25;5035372;27;97027;-77
2024/02/04 01:46:42;;;;;;;2.30;1.63;;;;;;;21.18;43.62;102232.56;5038060;27;96963;-78
2024/02/04 01:49:08;;;;;;;2.30;1.27;;;;;;;21.19;43.40;102233.44;5039663;27;99459;-77
2024/02/04 01:51:34;;;;;;;1.88;1.20;;;;;;;21.18;43.64;102237.00;5017393;28;99643;-78
2024/02/04 01:54:00;;;;;;;2.55;1.40;;;;;;;21.19;43.66;102246.69;5034432;27;97532;-77
2024/02/04 01:56:26;;;;;;;3.45;1.60;;;;;;;21.18;43.36;102227.25;5037907;27;97710;-77
2024/02/04 01:58:52;;;;;;;3.47;1.90;;;;;;;21.19;43.49;102233.44;5033690;27;99841;-78
2024/02/04 02:01:18;;;;;;;2.35;1.50;;;;;;;21.19;43.43;102229.00;5034817;27;100023;-78
2024/02/04 02:03:43;;;;;;;2.95;1.90;;;;;;;21.19;43.67;102228.13;5035105;27;96762;-77
2024/02/04 02:06:09;;;;;;;3.63;2.10;;;;;;;21.18;43.64;102232.56;5038374;27;97745;-77
2024/02/04 02:08:35;;;;;;;3.28;1.73;;;;;;;21.19;43.32;102228.13;5036298;27;97518;-78
2024/02/04 02:11:18;;;;;;;1.98;1.20;;;;;;;21.18;43.57;102231.69;5033130;27;99358;-78
2024/02/04 02:13:47;;;;;;;3.30;2.22;;;;;;;21.18;43.60;102234.34;5035308;27;96941;-78
2024/02/04 02:16:21;;;;;;;3.63;2.25;;;;;;;21.18;43.44;102240.53;5042704;27;97253;-77
2024/02/04 02:18:52;;;;;;;2.58;1.30;;;;;;;21.18;43.53;102234.34;5039161;27;98786;-77
2024/02/04 02:21:37;;;;;;;2.80;2.08;;;;;;;21.19;43.52;102241.41;5039026;27;98700;-78
2024/02/04 02:24:03;;;;;;;2.90;1.50;;;;;;;21.17;43.61;102236.09;5034336;27;96743;-77
2024/02/04 02:26:33;;;;;;;3.05;1.55;;;;;;;21.17;43.50;102237.88;5029807;27;96717;-78
2024/02/04 02:28:59;;;;;;;2.33;1.33;;;;;;;21.18;43.35;102234.34;5023193;27;99144;-78
2024/02/04 02:31:25;;;;;;;2.65;1.70;;;;;;;21.18;43.17;102226.38;5033336;27;120922;-78
2024/02/04 02:33:50;;;;;;;2.67;2.05;;;;;;;21.19;43.64;102233.44;5044446;27;96820;-78
2024/02/04 02:36:21;;;;;;;4.38;1.50;;;;;;;21.18;43.36;102216.66;5039181;27;96951;-78
2024/02/04 02:38:59;;;;;;;2.88;1.40;;;;;;;21.18;43.23;102219.31;5037049;27;97909;-77
2024/02/04 02:41:29;;;;;;;2.78;1.83;;;;;;;21.19;43.45;102218.38;5027885;27;99545;-78
2024/02/04 02:43:56;;;;;;;2.60;1.73;;;;;;;21.18;43.28;102208.69;5030030;27;96810;-77
2024/02/04 02:46:23;;;;;;;2.20;1.25;;;;;;;21.19;43.49;102207.78;5035040;27;96830;-78
2024/02/04 02:48:49;;;;;;;3.25;2.08;;;;;;;21.19;43.43;102197.16;5043294;27;96834;-78
2024/02/04 02:51:15;;;;;;;2.83;1.45;;;;;;;21.19;43.28;102199.81;5042314;27;100050;-77
2024/02/04 02:53:41;;;;;;;2.50;1.40;;;;;;;21.19;43.20;102202.47;5012144;27;97302;-77
2024/02/04 02:56:07;;;;;;;3.20;1.55;;;;;;;21.18;43.44;102203.38;5035461;27;96767;-77
2024/02/04 02:58:32;;;;;;;2.92;1.60;;;;;;;21.19;43.43;102206.91;5033131;27;100624;-77
2024/02/04 03:00:57;;;;;;;2.28;1.63;;;;;;;21.19;43.62;102193.63;5021989;27;99927;-78
2024/02/04 03:03:23;;;;;;;2.45;1.23;;;;;;;21.19;43.40;102190.97;5040182;27;97198;-78
2024/02/04 03:05:48;;;;;;;3.38;1.38;;;;;;;21.18;43.44;102190.13;5038137;27;100694;-78
2024/02/04 03:08:14;;;;;;;3.78;1.50;;;;;;;21.18;43.21;102182.16;5032777;27;112825;-77
2024/02/04 03:10:39;;;;;;;2.50;1.60;;;;;;;21.19;43.68;102190.97;5041497;27;125804;-78
2024/02/04 03:13:05;;;;;;;2.42;1.30;;;;;;;21.19;43.48;102186.53;5029204;27;107904;-77
2024/02/04 03:15:30;;;;;;;2.45;1.80;;;;;;;21.18;43.53;102192.75;5036565;27;96729;-78
2024/02/04 03:17:56;;;;;;;2.10;1.60;;;;;;;21.18;43.38;102198.06;5031833;27;99322;-78
2024/02/04 03:20:21;;;;;;;2.42;1.05;;;;;;;21.20;43.19;102198.06;5038926;27;122431;-77
2024/02/04 03:22:48;;;;;;;2.83;1.40;;;;;;;21.19;43.42;102197.16;5029671;27;112253;-78
2024/02/04 03:25:13;;;;;;;2.40;1.13;;;;;;;21.20;43.17;102185.66;5038053;27;96944;-78
2024/02/04 03:27:40;;;;;;;3.03;1.38;;;;;;;21.20;43.54;102198.06;5017693;27;100298;-78
2024/02/04 03:30:06;;;;;;;2.45;1.70;;;;;;;21.20;43.25;102196.28;5026582;27;100026;-78
2024/02/04 03:32:33;;;;;;;2.75;1.30;;;;;;;21.19;43.37;102197.16;5022853;28;98741;-77
2024/02/04 03:35:01;;;;;;;2.10;1.60;;;;;;;21.20;43.45;102184.78;5013536;28;98705;-77
2024/02/04 03:37:26;;;;;;;2.90;1.58;;;;;;;21.20;43.35;102184.78;5035035;27;100913;-77
2024/02/04 03:39:52;;;;;;;2.75;1.67;;;;;;;21.19;43.17;102196.28;5033484;27;99094;-78
2024/02/04 03:42:18;;;;;;;3.05;1.10;;;;;;;21.19;43.47;102191.84;5034567;27;105471;-78
2024/02/04 03:44:44;;;;;;;2.22;1.20;;;;;;;21.20;43.33;102192.75;5020728;27;97527;-77
2024/02/04 03:47:09;;;;;;;2.13;1.10;;;;;;;21.19;43.41;102189.19;5032271;27;98855;-77
2024/02/04 03:49:35;;;;;;;2.75;1.73;;;;;;;21.20;43.21;102198.06;5034699;27;97206;-78
2024/02/04 03:52:00;;;;;;;3.22;1.33;;;;;;;21.19;43.20;102194.50;5033088;27;98594;-77
2024/02/04 03:54:26;;;;;;;1.80;1.02;;;;;;;21.20;43.20;102200.72;5032393;27;96957;-78
2024/02/04 03:56:51;;;;;;;2.60;1.92;;;;;;;21.19;43.32;102202.47;5022699;27;100250;-78
2024/02/04 03:59:17;;;;;;;2.92;1.50;;;;;;;21.21;43.27;102208.66;5039956;27;99977;-77
2024/02/04 04:01:48;;;;;;;2.25;1.50;;;;;;;21.21;43.33;102205.09;5031098;27;96796;-77
2024/02/04 04:04:14;;;;;;;2.47;1.80;;;;;;;21.21;43.48;102202.44;5041932;27;97673;-77
2024/02/04 04:06:39;;;;;;;2.05;1.10;;;;;;;21.20;43.48;102204.25;5012963;28;98776;-78
2024/02/04 04:09:05;;;;;;;2.15;1.30;;;;;;;21.20;43.36;102204.25;5030690;27;125588;-77
2024/02/04 04:11:31;;;;;;;2.05;1.10;;;;;;;21.20;43.19;102214.84;5031994;27;98849;-77
2024/02/04 04:13:56;;;;;;;2.80;1.30;;;;;;;21.20;43.75;102214.84;5029653;27;112272;-77
2024/02/04 04:16:22;;;;;;;2.55;1.60;;;;;;;21.20;43.40;102228.13;5032980;27;97685;-78
2024/02/04 04:18:48;;;;;;;2.80;1.23;;;;;;;21.21;43.45;102234.28;5033146;27;97458;-78
2024/02/04 04:21:13;;;;;;;2.90;1.27;;;;;;;21.22;43.41;102238.72;5033468;27;98157;-77
2024/02/04 04:23:38;;;;;;;3.00;1.67;;;;;;;21.21;43.33;102227.25;5029539;27;97266;-78
2024/02/04 04:26:04;;;;;;;2.03;1.17;;;;;;;21.21;43.38;102213.06;5038403;27;126616;-77
2024/02/04 04:28:29;;;;;;;2.30;1.17;;;;;;;21.20;43.33;102203.38;5032817;27;97699;-77
2024/02/04 04:30:55;;;;;;;2.25;1.75;;;;;;;21.21;43.11;102198.06;5031027;27;97057;-77
2024/02/04 04:33:20;;;;;;;2.17;1.10;;;;;;;21.21;43.59;102183.88;5036028;27;96917;-78
2024/02/04 04:35:45;;;;;;;2.78;1.10;;;;;;;21.21;43.33;102179.47;5039792;27;127563;-78
2024/02/04 04:38:11;;;;;;;2.25;1.30;;;;;;;21.20;43.56;102185.66;5026067;27;119774;-78
2024/02/04 04:40:36;;;;;;;2.13;1.10;;;;;;;21.20;43.17;102179.50;5035945;27;112439;-78
2024/02/04 04:43:01;;;;;;;2.00;1.58;;;;;;;21.21;43.66;102179.47;5032951;27;97362;-78
2024/02/04 04:45:27;;;;;;;2.78;1.20;;;;;;;21.21;43.41;102187.44;5023968;27;97938;-78
2024/02/04 04:47:52;;;;;;;1.98;1.02;;;;;;;21.21;43.49;102182.13;5031582;27;125433;-77
2024/02/04 04:50:17;;;;;;;3.25;1.10;;;;;;;21.21;43.45;102170.63;5046032;27;110785;-77
2024/02/04 04:52:43;;;;;;;2.95;1.42;;;;;;;21.20;43.43;102169.75;5011592;27;96898;-78
2024/02/04 04:55:08;;;;;;;2.97;1.13;;;;;;;21.20;43.21;102167.09;5012205;27;116524;-77
2024/02/04 04:57:34;;;;;;;3.17;0.93;;;;;;;21.21;43.28;102168.88;5030761;27;116495;-78
2024/02/04 05:00:03;;;;;;;1.98;1.10;;;;;;;21.21;43.43;102167.97;5032947;27;97199;-77
2024/02/04 05:02:29;;;;;;;2.42;1.33;;;;;;;21.21;43.08;102170.63;5035267;27;96739;-78
2024/02/04 05:04:54;;;;;;;2.72;1.58;;;;;;;21.21;43.32;102158.25;5033466;27;98523;-78
2024/02/04 05:07:21;;;;;;;2.50;1.10;;;;;;;21.21;43.23;102150.28;5035610;27;97337;-78
2024/02/04 05:09:47;;;;;;;1.90;1.00;;;;;;;21.21;43.27;102144.97;5035764;27;97046;-77
2024/02/04 05:12:12;;;;;;;2.47;0.90;;;;;;;21.21;43.19;102152.03;5040150;27;96895;-78
2024/02/04 05:14:37;;;;;;;2.55;1.73;;;;;;;21.21;43.25;102154.69;5024357;27;121952;-78
2024/02/04 05:17:04;;;;;;;1.75;0.90;;;;;;;21.22;43.08;102156.47;5035853;27;125094;-78
2024/02/04 05:19:29;;;;;;;2.40;1.13;;;;;;;21.21;43.26;102147.63;5039058;27;97159;-78
2024/02/04 05:21:54;;;;;;;2.08;1.50;;;;;;;21.20;43.38;102143.22;5034690;27;112118;-78
2024/02/04 05:24:20;;;;;;;2.38;1.08;;;;;;;21.21;43.51;102150.28;5025788;27;126649;-78
2024/02/04 05:26:45;;;;;;;2.65;2.10;;;;;;;21.21;43.13;102142.31;5030562;27;126511;-78
2024/02/04 05:29:10;;;;;;;1.80;1.10;;;;;;;21.21;43.20;102144.09;5030352;27;97225;-77
2024/02/04 05:31:43;;;;;;;2.88;1.77;;;;;;;21.20;43.32;102137.91;5037818;27;96761;-77
2024/02/04 05:34:08;;;;;;;3.13;1.88;;;;;;;21.22;43.14;102137.91;5034470;28;97685;-78
2024/02/04 05:36:34;;;;;;;2.47;1.00;;;;;;;21.21;43.41;102139.69;5022288;27;97302;-78
2024/02/04 05:39:13;;;;;;;3.13;1.65;;;;;;;21.21;43.16;102147.63;5035279;27;97133;-77
2024/02/04 05:41:39;;;;;;;2.45;1.35;;;;;;;21.21;43.53;102142.31;5033344;28;96649;-77
2024/02/04 05:44:05;;;;;;;4.90;1.55;;;;;;;21.21;43.46;102138.78;5036439;27;96976;-78
2024/02/04 05:46:30;;;;;;;2.97;1.00;;;;;;;21.22;43.40;102137.91;5038714;27;99827;-78
2024/02/04 05:48:55;;;;;;;2.92;1.33;;;;;;;21.21;43.36;102137.03;5027273;27;112141;-77
2024/02/04 05:51:22;;;;;;;2.53;1.25;;;;;;;21.20;43.21;102151.16;5041335;27;97863;-77
2024/02/04 05:53:47;;;;;;;1.98;1.02;;;;;;;21.22;43.05;102145.84;5034376;27;99746;-77
2024/02/04 05:56:13;;;;;;;1.83;1.08;;;;;;;21.22;43.21;102159.13;5035743;27;97706;-77
2024/02/04 05:58:39;;;;;;;3.33;1.10;;;;;;;21.21;43.42;102152.94;5034289;27;97631;-77
2024/02/04 06:01:05;;;;;;;2.67;1.88;;;;;;;21.22;43.24;102132.59;5028319;27;97221;-77
2024/02/04 06:03:30;;;;;;;2.15;1.05;;;;;;;21.22;43.48;102137.91;5035564;27;126730;-78
2024/02/04 06:05:55;;;;;;;2.30;1.00;;;;;;;21.21;43.36;102130.81;5034954;27;97680;-77
2024/02/04 06:08:21;;;;;;;3.08;1.50;;;;;;;21.21;43.20;102121.09;5028589;28;96914;-78
2024/02/04 06:10:46;;;;;;;2.45;1.35;;;;;;;21.22;43.17;102121.97;5024136;28;111764;-78
2024/02/04 06:13:11;;;;;;;2.78;1.30;;;;;;;21.23;42.90;102115.75;5023627;27;98093;-78
2024/02/04 06:15:37;;;;;;;2.40;1.33;;;;;;;21.22;43.20;102133.47;5025523;27;100020;-78
2024/02/04 06:18:02;;;;;;;2.35;1.40;;;;;;;21.22;43.21;102124.63;5030178;27;97974;-78
2024/02/04 06:20:28;;;;;;;2.85;1.77;;;;;;;21.23;43.29;102126.38;5035144;27;98275;-78
2024/02/04 06:22:53;;;;;;;1.92;1.00;;;;;;;21.22;43.45;102122.84;5029793;27;96878;-78
2024/02/04 06:25:18;;;;;;;2.63;2.03;;;;;;;21.22;43.34;102132.59;5029311;27;96662;-78
2024/02/04 06:27:44;;;;;;;2.88;0.85;;;;;;;21.23;43.28;102129.00;5016195;27;113307;-78
2024/02/04 06:30:09;;;;;;;1.88;0.82;;;;;;;21.22;43.41;102121.97;5036180;27;112709;-78
2024/02/04 06:32:35;;;;;;;1.83;0.90;;;;;;;21.22;43.67;102106.91;5034189;27;97199;-77
2024/02/04 06:35:00;;;;;;;1.98;0.98;;;;;;;21.22;43.38;102109.56;5030688;27;126979;-78
2024/02/04 06:37:26;;;;;;;1.98;1.00;;;;;;;21.22;43.37;102106.91;5030773;27;112019;-77
2024/02/04 06:39:52;;;;;;;2.55;1.08;;;;;;;21.23;43.33;102110.44;5023504;27;96819;-78
2024/02/04 06:42:18;;;;;;;2.22;1.42;;;;;;;21.23;43.28;102089.22;5035570;27;97959;-78
2024/02/04 06:44:44;;;;;;;2.42;1.42;;;;;;;21.23;43.44;102090.13;5012899;28;104844;-77
2024/02/04 06:47:12;;;;;;;2.03;0.90;;;;;;;21.24;43.52;102097.16;5026271;27;97476;-78
2024/02/04 06:49:38;;;;;;;2.88;1.70;;;;;;;21.23;43.52;102107.78;5032910;27;96766;-77
2024/02/04 06:52:03;;;;;;;2.13;1.00;;;;;;;21.23;43.24;102107.78;5030075;27;97782;-78
2024/02/04 06:54:29;;;;;;;2.33;1.40;;;;;;;21.23;43.39;102113.09;5034797;27;101347;-78
2024/02/04 06:56:54;;;;;;;2.88;1.40;;;;;;;21.23;43.04;102111.34;5032620;27;112156;-78
2024/02/04 06:59:19;;;;;;;2.20;0.93;;;;;;;21.23;43.45;102113.09;5035768;27;97298;-77
2024/02/04 07:01:45;;;;;;;3.25;1.10;;;;;;;21.23;43.34;102113.09;5031544;27;96869;-78
2024/02/04 07:04:13;;;;;;;2.05;1.20;;;;;;;21.24;43.40;102125.47;5012517;27;99272;-78
2024/02/04 07:06:39;;;;;;;3.47;1.33;;;;;;;21.23;43.39;102121.06;5025885;27;98757;-78
2024/02/04 07:09:05;;;;;;;2.03;0.90;;;;;;;21.23;43.47;102126.38;5034244;27;111578;-78
2024/02/04 07:11:30;;;;;;;1.98;1.20;;;;;;;21.23;43.44;102132.56;5031025;27;98455;-78
2024/02/04 07:13:59;;;;;;;1.98;0.90;;;;;;;21.23;43.42;102137.88;5032511;27;104655;-78
2024/02/04 07:16:25;;;;;;;3.22;1.20;;;;;;;21.24;43.24;102136.09;5036409;27;96972;-78
2024/02/04 07:18:51;;;;;;;2.72;1.08;;;;;;;21.24;43.13;102133.44;5023781;27;96777;-78
2024/02/04 07:21:16;;;;;;;2.53;0.95;;;;;;;21.23;43.15;102139.63;5028036;27;100452;-79
2024/02/04 07:23:42;;;;;;;1.63;1.50;;;;;;;21.24;43.12;102146.72;5019974;28;99505;-78
2024/02/04 07:26:08;;;;;;;2.22;1.40;;;;;;;21.25;43.11;102148.47;5038225;27;97097;-78
2024/02/04 07:28:34;;;;;;;2.17;1.85;;;;;;;21.24;43.28;102141.41;5007852;28;96974;-78
2024/02/04 07:31:00;;;;;;;3.42;1.42;;;;;;;21.24;43.13;102142.28;5027950;27;98373;-78
2024/02/04 07:33:25;;;;;;;1.85;0.80;;;;;;;21.24;43.46;102129.00;5028745;27;99584;-79
2024/02/04 07:35:51;;;;;;;2.08;0.90;;;;;;;21.25;43.26;102124.59;5018252;27;97444;-78
2024/02/04 07:38:17;;;;;;;1.88;0.93;;;;;;;21.25;43.16;102129.91;5010940;27;97001;-78
2024/02/04 07:40:42;;;;;;;2.25;1.23;;;;;;;21.24;43.25;102123.69;5033511;27;97897;-78
2024/02/04 07:43:08;;;;;;;2.17;1.10;;;;;;;21.24;43.07;102130.78;5039806;27;97166;-78
2024/02/04 07:45:34;;;;;;;1.30;0.80;;;;;;;21.25;43.18;102127.25;5029779;27;97616;-78
2024/02/04 07:48:00;;;;;;;3.50;1.80;;;;;;;21.25;43.42;102124.59;5019905;27;99094;-78
2024/02/04 07:50:25;;;;;;;1.88;0.80;;;;;;;21.26;43.37;102118.38;5003865;27;101226;-78
2024/02/04 07:52:51;;;;;;;2.05;1.02;;;;;;;21.25;43.27;102104.25;5017660;27;98694;-78
2024/02/04 07:55:17;;;;;;;1.48;0.65;;;;;;;21.25;43.10;102104.25;5030405;28;96875;-78
2024/02/04 07:57:42;;;;;;;1.92;0.80;;;;;;;21.24;43.42;102099.81;5017177;28;96879;-78
2024/02/04 08:00:11;;;;;;;3.80;1.00;;;;;;;21.25;43.57;102106.03;5029111;27;99557;-78
2024/02/04 08:02:40;;;;;;;1.83;0.80;;;;;;;21.24;43.24;102099.81;5015666;28;97401;-79
2024/02/04 08:05:05;;;;;;;1.92;1.05;;;;;;;21.26;43.05;102107.75;5025410;27;97303;-79
2024/02/04 08:07:31;;;;;;;1.77;0.95;;;;;;;21.25;43.31;102111.34;5030015;27;97006;-78
2024/02/04 08:09:57;;;;;;;2.35;1.27;;;;;;;21.25;43.26;102111.34;5026577;27;97362;-78
2024/02/04 08:12:22;;;;;;;3.17;1.40;;;;;;;21.24;43.32;102101.59;5033750;27;97691;-79
2024/02/04 08:14:48;;;;;;;2.50;1.35;;;;;;;21.25;43.45;102106.03;5037134;27;96758;-79
2024/02/04 08:17:13;;;;;;;2.42;1.55;;;;;;;21.24;43.23;102097.16;5039116;27;98002;-78
2024/02/04 08:19:39;;;;;;;3.72;1.40;;;;;;;21.25;43.20;102098.06;5039596;27;97966;-78
2024/02/04 08:22:05;;;;;;;2.30;1.17;;;;;;;21.25;42.96;102093.63;5035299;27;100620;-78
2024/02/04 08:24:32;;;;;;;4.55;1.52;;;;;;;21.26;43.23;102091.84;5030527;27;97949;-79
2024/02/04 08:26:58;;;;;;;2.60;1.30;;;;;;;21.24;43.36;102075.94;5033997;27;96816;-78
2024/02/04 08:29:24;;;;;;;3.35;1.33;;;;;;;21.25;43.53;102080.34;5032173;27;97333;-78
2024/02/04 08:31:50;;;;;;;2.22;1.20;;;;;;;21.25;43.06;102085.66;5032689;27;98138;-78
2024/02/04 08:34:15;;;;;;;2.13;0.80;;;;;;;21.25;43.24;102084.78;5032612;27;96733;-78
2024/02/04 08:36:41;;;;;;;1.27;0.73;;;;;;;21.25;43.33;102084.78;5040860;27;96947;-78
2024/02/04 08:39:06;;;;;;;2.47;1.10;;;;;;;21.25;43.36;102085.66;5037558;27;98070;-78
2024/02/04 08:41:32;;;;;;;3.15;1.23;;;;;;;21.25;43.33;102090.09;5023058;28;97489;-78
2024/02/04 08:43:57;;;;;;;1.75;0.70;;;;;;;21.25;43.20;102090.97;5037453;27;112632;-78
2024/02/04 08:46:23;;;;;;;4.85;1.00;;;;;;;21.26;43.32;102094.50;5035861;27;96922;-78
2024/02/04 08:48:48;;;;;;;2.13;1.30;;;;;;;21.25;43.22;102092.75;5038212;27;97142;-78
2024/02/04 08:51:15;;;;;;;1.60;0.73;;;;;;;21.24;43.45;102094.50;5033217;28;98228;-78
2024/02/04 08:53:41;;;;;;;3.20;1.30;;;;;;;21.25;43.16;102096.28;5034024;28;96826;-79
2024/02/04 08:56:07;;;;;;;2.05;0.93;;;;;;;21.25;43.31;102098.94;5038118;27;97420;-79
2024/02/04 08:58:32;;;;;;;1.52;0.70;;;;;;;21.26;43.40;102097.16;5037706;27;97885;-78
2024/02/04 09:00:58;;;;;;;4.00;1.50;;;;;;;21.26;43.31;102099.81;5031650;27;110969;-78
2024/02/04 09:03:23;;;;;;;2.22;1.30;;;;;;;21.26;43.22;102102.47;5031264;27;97157;-78
2024/02/04 09:05:49;;;;;;;1.90;1.30;;;;;;;21.26;43.13;102097.16;5039781;27;107952;-79
2024/02/04 09:08:14;;;;;;;1.50;0.73;;;;;;;21.26;43.26;102091.84;5032624;27;97763;-78
2024/02/04 09:10:40;;;;;;;2.15;0.80;;;;;;;21.26;43.13;102107.75;5034469;27;97483;-79
2024/02/04 09:13:05;;;;;;;3.40;0.95;;;;;;;21.26;43.52;102115.72;5030085;27;97461;-78
2024/02/04 09:15:30;;;;;;;2.22;1.20;;;;;;;21.25;43.49;102106.91;5020332;28;97183;-78
2024/02/04 09:17:56;;;;;;;3.40;0.90;;;;;;;21.25;43.24;102101.59;5035616;27;115242;-78
2024/02/04 09:20:22;;;;;;;2.00;1.23;;;;;;;21.25;43.29;102104.25;5036696;27;120985;-80
2024/02/04 09:22:47;;;;;;;2.28;0.70;;;;;;;21.25;43.13;102098.94;5047767;27;96830;-79
2024/02/04 09:25:13;;;;;;;2.47;1.08;;;;;;;21.26;43.32;102100.66;5019978;27;98307;-79
2024/02/04 09:27:38;;;;;;;2.25;1.30;;;;;;;21.27;43.44;102093.63;5032929;28;100808;-78
2024/02/04 09:30:05;;;;;;;2.70;1.20;;;;;;;21.26;43.30;102099.81;5032420;27;128246;-79
2024/02/04 09:32:31;;;;;;;2.47;0.70;;;;;;;21.27;43.11;102102.44;5024717;27;96854;-79
2024/02/04 09:34:57;;;;;;;2.13;1.35;;;;;;;21.27;43.42;102101.56;5030610;27;97193;-79
2024/02/04 09:37:22;;;;;;;3.05;1.25;;;;;;;21.26;43.51;102100.66;5013952;28;115873;-79
2024/02/04 09:39:48;;;;;;;1.73;1.52;;;;;;;21.27;43.49;102101.56;5021560;28;97148;-79
2024/02/04 09:42:23;;;;;;;2.40;0.80;;;;;;;21.27;43.34;102105.09;5039744;27;97048;-79
2024/02/04 09:44:48;;;;;;;;;;;;;;;21.21;43.21;102107.84;5037753;27;96897;-79
2024/02/04 09:47:14;;;;;;;2.00;0.70;;;;;;;21.22;43.39;102100.75;5030396;27;98013;-79
2024/02/04 09:49:40;;;;;;;2.47;1.10;;;;;;;21.25;43.11;102101.59;5029896;27;97730;-79
2024/02/04 09:52:08;;;;;;;1.65;1.17;;;;;;;21.26;43.32;102105.09;5030499;27;98221;-79
2024/02/04 09:54:45;;;;;;;2.13;0.80;;;;;;;21.26;43.50;102105.09;5022319;27;97525;-79
2024/02/04 09:57:12;;;;;;;2.10;1.33;;;;;;;21.26;43.48;102103.31;5024699;27;98192;-79
2024/02/04 09:59:37;;;;;;;1.85;1.23;;;;;;;21.27;43.00;102098.91;5000994;28;98958;-79
2024/02/04 10:02:04;;;;;;;2.83;1.08;;;;;;;21.26;43.52;102102.47;5018077;27;111805;-79
2024/02/04 10:04:29;;;;;;;1.88;0.70;;;;;;;21.27;43.46;102098.91;5014678;27;97182;-79
2024/02/04 10:06:55;;;;;;;1.92;1.20;;;;;;;21.27;43.29;102107.75;5016741;27;97946;-79
2024/02/04 10:09:21;;;;;;;2.05;0.80;;;;;;;21.28;43.37;102105.97;5014166;28;129049;-78
2024/02/04 10:11:46;;;;;;;2.25;0.70;;;;;;;21.27;43.21;102120.16;5017073;27;102112;-79
2024/02/04 10:14:12;;;;;;;4.25;1.55;;;;;;;21.28;43.61;102116.56;5026885;27;97110;-79
2024/02/04 10:16:37;;;;;;;2.15;1.35;;;;;;;21.27;43.26;102114.84;5029975;27;97261;-79
2024/02/04 10:19:03;;;;;;;2.22;1.05;;;;;;;21.28;43.28;102111.28;5014205;28;96742;-79
2024/02/04 10:21:28;;;;;;;3.15;1.50;;;;;;;21.28;43.21;102112.16;5016390;27;96735;-79
2024/02/04 10:23:55;;;;;;;3.13;2.33;;;;;;;21.28;43.14;102109.53;5018372;28;97080;-79
2024/02/04 10:26:21;;;;;;;3.58;2.90;;;;;;;21.28;43.31;102125.44;5019280;27;97350;-79
2024/02/04 10:28:47;;;;;;;5.07;2.60;;;;;;;21.29;43.52;102126.31;5036387;27;97263;-79
2024/02/04 10:31:13;;;;;;;5.95;4.20;;;;;;;21.30;43.11;102130.69;5033282;27;96826;-79
2024/02/04 10:33:39;;;;;;;5.53;5.03;;;;;;;21.29;43.56;102126.31;5015045;28;96724;-79
2024/02/04 10:36:05;;;;;;;7.90;6.78;;;;;;;21.30;43.14;102125.41;5014039;28;100025;-79
2024/02/04 10:38:32;;;;;;;7.68;6.35;;;;;;;21.30;43.46;102130.69;4996972;28;100970;-79
2024/02/04 10:41:01;;;;;;;8.90;7.45;;;;;;;21.30;43.40;102125.41;5031300;27;97253;-80
2024/02/04 10:43:36;;;;;;;10.13;9.13;;;;;;;21.30;43.34;102126.28;5036097;28;96874;-79
2024/02/04 10:46:10;;;;;;;12.55;11.02;;;;;;;21.31;43.21;102124.50;5034270;27;96936;-80
2024/02/04 10:48:46;;;;;;;16.33;14.82;;;;;;;21.30;43.48;102120.09;5023472;28;97480;-79
2024/02/04 10:51:15;;;;;;;16.77;15.38;;;;;;;21.30;43.50;102122.75;5024864;27;97533;-80
2024/02/04 10:53:43;;;;;;;18.60;16.85;;;;;;;21.29;43.25;102110.38;5022053;27;96603;-80
2024/02/04 10:56:17;;;;;;;19.05;17.25;;;;;;;21.30;43.44;102115.69;5015964;28;97458;-79
2024/02/04 10:58:44;;;;;;;24.92;22.80;;;;;;;21.30;43.41;102114.78;5010785;28;97633;-79
2024/02/04 11:01:10;;;;;;;25.70;23.25;;;;;;;21.31;43.42;102100.63;5016087;27;97603;-79
2024/02/04 11:03:36;;;;;;;28.45;25.90;;;;;;;21.30;43.33;102105.06;5037257;27;96880;-79
2024/02/04 11:06:02;;;;;;;28.92;26.15;;;;;;;21.32;43.34;102109.47;5031788;28;100600;-79
2024/02/04 11:08:28;;;;;;;28.33;25.63;;;;;;;21.30;43.16;102099.75;5033227;27;97178;-79
2024/02/04 11:10:53;;;;;;;34.45;31.35;;;;;;;21.31;43.19;102097.97;5016499;28;96899;-79
2024/02/04 11:13:22;;;;;;;33.60;30.60;;;;;;;21.32;43.45;102096.19;5012042;28;96840;-79
2024/02/04 11:15:48;;;;;;;34.83;31.52;;;;;;;21.32;43.47;102090.88;5033921;27;97364;-79
2024/02/04 11:18:55;;;;;;;39.33;35.42;;;;;;;21.30;43.53;102078.53;5030191;27;97337;-79